sensor_id;sensor_type;location;lat;lon;timestamp;P1;P2;P0
42510;PMS7003;28141;51.120;17.114;2022-07-06T00:02:33;11;3;3
42510;PMS7003;28141;51.120;17.114;2022-07-06T00:05:37;13;6;3
42510;PMS7003;28141;51.120;17.114;2022-07-06T00:08:40;9;3;2
42510;PMS7003;28141;51.120;17.114;2022-07-06T00:11:43;10;4;3
42510;PMS7003;28141;51.120;17.114;2022-07-06T00:15:16;11;4;3
42510;PMS7003;28141;51.120;17.114;2022-07-06T00:18:19;10;3;2
42510;PMS7003;28141;51.120;17.114;2022-07-06T00:21:23;10;4;3
42510;PMS7003;28141;51.120;17.114;2022-07-06T00:24:26;10;4;3
42510;PMS7003;28141;51.120;17.114;2022-07-06T00:27:29;12;5;4
42510;PMS7003;28141;51.120;17.114;2022-07-06T00:30:33;10;4;3
42510;PMS7003;28141;51.120;17.114;2022-07-06T00:33:36;11;4;3
42510;PMS7003;28141;51.120;17.114;2022-07-06T00:36:40;11;5;3
42510;PMS7003;28141;51.120;17.114;2022-07-06T00:39:43;12;4;3
42510;PMS7003;28141;51.120;17.114;2022-07-06T00:42:47;11;4;3
42510;PMS7003;28141;51.120;17.114;2022-07-06T00:45:51;11;5;3
42510;PMS7003;28141;51.120;17.114;2022-07-06T00:48:54;11;5;2
42510;PMS7003;28141;51.120;17.114;2022-07-06T00:52:26;10;4;3
42510;PMS7003;28141;51.120;17.114;2022-07-06T00:55:31;12;6;5
42510;PMS7003;28141;51.120;17.114;2022-07-06T00:58:37;11;4;3
42510;PMS7003;28141;51.120;17.114;2022-07-06T01:01:40;12;5;3
42510;PMS7003;28141;51.120;17.114;2022-07-06T01:04:44;11;4;3
42510;PMS7003;28141;51.120;17.114;2022-07-06T01:07:47;11;5;4
42510;PMS7003;28141;51.120;17.114;2022-07-06T01:10:52;11;4;3
42510;PMS7003;28141;51.120;17.114;2022-07-06T01:13:55;14;5;3
42510;PMS7003;28141;51.120;17.114;2022-07-06T01:17:00;11;4;3
42510;PMS7003;28141;51.120;17.114;2022-07-06T01:23:47;10;4;3
42510;PMS7003;28141;51.120;17.114;2022-07-06T01:26:52;11;4;3
42510;PMS7003;28141;51.120;17.114;2022-07-06T01:29:55;11;5;3
42510;PMS7003;28141;51.120;17.114;2022-07-06T01:32:59;11;5;3
42510;PMS7003;28141;51.120;17.114;2022-07-06T01:36:03;11;4;3
42510;PMS7003;28141;51.120;17.114;2022-07-06T01:39:07;11;5;4
42510;PMS7003;28141;51.120;17.114;2022-07-06T01:42:11;12;6;4
42510;PMS7003;28141;51.120;17.114;2022-07-06T01:45:14;11;4;3
42510;PMS7003;28141;51.120;17.114;2022-07-06T01:48:18;11;4;3
42510;PMS7003;28141;51.120;17.114;2022-07-06T01:51:21;12;5;3
42510;PMS7003;28141;51.120;17.114;2022-07-06T01:54:25;10;3;3
42510;PMS7003;28141;51.120;17.114;2022-07-06T01:57:54;11;5;3
42510;PMS7003;28141;51.120;17.114;2022-07-06T02:00:59;10;4;3
42510;PMS7003;28141;51.120;17.114;2022-07-06T02:04:02;12;4;3
42510;PMS7003;28141;51.120;17.114;2022-07-06T02:07:06;11;4;3
42510;PMS7003;28141;51.120;17.114;2022-07-06T02:10:09;11;5;3
42510;PMS7003;28141;51.120;17.114;2022-07-06T02:13:12;12;6;5
42510;PMS7003;28141;51.120;17.114;2022-07-06T02:16:16;11;5;3
42510;PMS7003;28141;51.120;17.114;2022-07-06T02:19:19;12;5;4
42510;PMS7003;28141;51.120;17.114;2022-07-06T02:22:22;12;5;4
42510;PMS7003;28141;51.120;17.114;2022-07-06T02:25:26;13;6;5
42510;PMS7003;28141;51.120;17.114;2022-07-06T02:28:29;12;5;3
42510;PMS7003;28141;51.120;17.114;2022-07-06T02:32:01;12;5;4
42510;PMS7003;28141;51.120;17.114;2022-07-06T02:35:04;12;4;3
42510;PMS7003;28141;51.120;17.114;2022-07-06T02:38:09;12;5;4
42510;PMS7003;28141;51.120;17.114;2022-07-06T02:41:12;11;4;3
42510;PMS7003;28141;51.120;17.114;2022-07-06T02:44:16;12;6;4
42510;PMS7003;28141;51.120;17.114;2022-07-06T02:47:19;11;5;4
42510;PMS7003;28141;51.120;17.114;2022-07-06T02:50:23;10;4;3
42510;PMS7003;28141;51.120;17.114;2022-07-06T02:53:29;12;6;4
42510;PMS7003;28141;51.120;17.114;2022-07-06T02:56:33;11;4;3
42510;PMS7003;28141;51.120;17.114;2022-07-06T02:59:36;12;5;4
42510;PMS7003;28141;51.120;17.114;2022-07-06T03:02:39;12;5;4
42510;PMS7003;28141;51.120;17.114;2022-07-06T03:06:09;15;7;6
42510;PMS7003;28141;51.120;17.114;2022-07-06T03:09:13;13;6;5
42510;PMS7003;28141;51.120;17.114;2022-07-06T03:12:16;14;7;6
42510;PMS7003;28141;51.120;17.114;2022-07-06T03:15:19;15;8;6
42510;PMS7003;28141;51.120;17.114;2022-07-06T03:18:23;13;6;5
42510;PMS7003;28141;51.120;17.114;2022-07-06T03:21:26;15;8;6
42510;PMS7003;28141;51.120;17.114;2022-07-06T03:24:30;14;6;5
42510;PMS7003;28141;51.120;17.114;2022-07-06T03:27:33;13;6;5
42510;PMS7003;28141;51.120;17.114;2022-07-06T03:30:38;16;8;7
42510;PMS7003;28141;51.120;17.114;2022-07-06T03:33:42;14;7;5
42510;PMS7003;28141;51.120;17.114;2022-07-06T03:36:45;16;9;7
42510;PMS7003;28141;51.120;17.114;2022-07-06T03:40:15;16;9;7
42510;PMS7003;28141;51.120;17.114;2022-07-06T03:43:19;15;8;6
42510;PMS7003;28141;51.120;17.114;2022-07-06T03:46:22;16;9;7
42510;PMS7003;28141;51.120;17.114;2022-07-06T03:49:25;16;9;7
42510;PMS7003;28141;51.120;17.114;2022-07-06T03:52:30;16;9;7
42510;PMS7003;28141;51.120;17.114;2022-07-06T03:55:33;17;10;7
42510;PMS7003;28141;51.120;17.114;2022-07-06T03:58:37;16;8;7
42510;PMS7003;28141;51.120;17.114;2022-07-06T04:01:40;18;10;7
42510;PMS7003;28141;51.120;17.114;2022-07-06T04:04:44;18;10;7
42510;PMS7003;28141;51.120;17.114;2022-07-06T04:07:48;19;11;7
42510;PMS7003;28141;51.120;17.114;2022-07-06T04:10:51;17;10;7
42510;PMS7003;28141;51.120;17.114;2022-07-06T04:13:55;15;9;7
42510;PMS7003;28141;51.120;17.114;2022-07-06T04:17:24;17;10;8
42510;PMS7003;28141;51.120;17.114;2022-07-06T04:20:40;17;9;7
42510;PMS7003;28141;51.120;17.114;2022-07-06T04:23:44;16;8;6
42510;PMS7003;28141;51.120;17.114;2022-07-06T04:26:47;18;10;7
42510;PMS7003;28141;51.120;17.114;2022-07-06T04:29:50;19;11;9
42510;PMS7003;28141;51.120;17.114;2022-07-06T04:32:56;16;9;7
42510;PMS7003;28141;51.120;17.114;2022-07-06T04:36:00;17;9;7
42510;PMS7003;28141;51.120;17.114;2022-07-06T04:39:03;16;9;6
42510;PMS7003;28141;51.120;17.114;2022-07-06T04:42:07;14;8;6
42510;PMS7003;28141;51.120;17.114;2022-07-06T04:45:37;16;9;6
42510;PMS7003;28141;51.120;17.114;2022-07-06T04:48:41;14;7;5
42510;PMS7003;28141;51.120;17.114;2022-07-06T04:51:45;16;8;6
42510;PMS7003;28141;51.120;17.114;2022-07-06T04:54:48;14;7;5
42510;PMS7003;28141;51.120;17.114;2022-07-06T04:57:52;14;7;5
42510;PMS7003;28141;51.120;17.114;2022-07-06T05:00:55;17;9;6
42510;PMS7003;28141;51.120;17.114;2022-07-06T05:03:59;15;7;6
42510;PMS7003;28141;51.120;17.114;2022-07-06T05:07:02;14;7;5
42510;PMS7003;28141;51.120;17.114;2022-07-06T05:10:07;13;6;4
42510;PMS7003;28141;51.120;17.114;2022-07-06T05:13:14;14;7;5
42510;PMS7003;28141;51.120;17.114;2022-07-06T05:16:48;13;5;4
42510;PMS7003;28141;51.120;17.114;2022-07-06T05:19:52;14;5;4
42510;PMS7003;28141;51.120;17.114;2022-07-06T05:22:56;13;6;5
42510;PMS7003;28141;51.120;17.114;2022-07-06T05:25:59;12;5;4
42510;PMS7003;28141;51.120;17.114;2022-07-06T05:29:03;12;6;4
42510;PMS7003;28141;51.120;17.114;2022-07-06T05:32:07;11;4;3
42510;PMS7003;28141;51.120;17.114;2022-07-06T05:35:11;12;5;3
42510;PMS7003;28141;51.120;17.114;2022-07-06T05:38:15;11;3;3
42510;PMS7003;28141;51.120;17.114;2022-07-06T05:41:19;13;5;4
42510;PMS7003;28141;51.120;17.114;2022-07-06T05:44:22;11;4;3
42510;PMS7003;28141;51.120;17.114;2022-07-06T05:47:26;11;4;4
42510;PMS7003;28141;51.120;17.114;2022-07-06T05:51:07;10;4;3
42510;PMS7003;28141;51.120;17.114;2022-07-06T05:54:11;11;4;2
42510;PMS7003;28141;51.120;17.114;2022-07-06T05:57:14;12;5;4
42510;PMS7003;28141;51.120;17.114;2022-07-06T06:00:18;11;4;3
42510;PMS7003;28141;51.120;17.114;2022-07-06T06:03:21;11;4;3
42510;PMS7003;28141;51.120;17.114;2022-07-06T06:06:28;12;4;3
42510;PMS7003;28141;51.120;17.114;2022-07-06T06:09:34;12;5;3
42510;PMS7003;28141;51.120;17.114;2022-07-06T06:12:38;10;3;3
42510;PMS7003;28141;51.120;17.114;2022-07-06T06:15:42;12;5;3
42510;PMS7003;28141;51.120;17.114;2022-07-06T06:18:46;12;5;3
42510;PMS7003;28141;51.120;17.114;2022-07-06T06:22:18;11;4;3
42510;PMS7003;28141;51.120;17.114;2022-07-06T06:25:31;11;4;3
42510;PMS7003;28141;51.120;17.114;2022-07-06T06:28:31;12;5;4
42510;PMS7003;28141;51.120;17.114;2022-07-06T06:31:35;12;6;4
42510;PMS7003;28141;51.120;17.114;2022-07-06T06:34:40;13;5;4
42510;PMS7003;28141;51.120;17.114;2022-07-06T06:37:46;14;6;4
42510;PMS7003;28141;51.120;17.114;2022-07-06T06:40:50;11;4;3
42510;PMS7003;28141;51.120;17.114;2022-07-06T06:43:55;12;4;3
42510;PMS7003;28141;51.120;17.114;2022-07-06T06:46:59;12;5;3
42510;PMS7003;28141;51.120;17.114;2022-07-06T06:50:32;11;4;3
42510;PMS7003;28141;51.120;17.114;2022-07-06T06:53:36;11;4;3
42510;PMS7003;28141;51.120;17.114;2022-07-06T06:56:39;12;5;4
42510;PMS7003;28141;51.120;17.114;2022-07-06T06:59:43;11;5;4
42510;PMS7003;28141;51.120;17.114;2022-07-06T07:02:47;11;4;3
42510;PMS7003;28141;51.120;17.114;2022-07-06T07:05:51;12;4;3
42510;PMS7003;28141;51.120;17.114;2022-07-06T07:08:54;11;4;3
42510;PMS7003;28141;51.120;17.114;2022-07-06T07:11:59;12;5;4
42510;PMS7003;28141;51.120;17.114;2022-07-06T07:15:03;11;4;3
42510;PMS7003;28141;51.120;17.114;2022-07-06T07:18:07;10;4;3
42510;PMS7003;28141;51.120;17.114;2022-07-06T07:21:10;12;5;3
42510;PMS7003;28141;51.120;17.114;2022-07-06T07:24:40;12;6;4
42510;PMS7003;28141;51.120;17.114;2022-07-06T07:27:44;11;5;3
42510;PMS7003;28141;51.120;17.114;2022-07-06T07:30:47;11;4;3
42510;PMS7003;28141;51.120;17.114;2022-07-06T07:33:52;11;4;3
42510;PMS7003;28141;51.120;17.114;2022-07-06T07:36:59;13;5;4
42510;PMS7003;28141;51.120;17.114;2022-07-06T07:40:03;11;4;3
42510;PMS7003;28141;51.120;17.114;2022-07-06T07:43:08;10;4;3
42510;PMS7003;28141;51.120;17.114;2022-07-06T07:46:12;12;5;3
42510;PMS7003;28141;51.120;17.114;2022-07-06T07:49:16;11;4;3
42510;PMS7003;28141;51.120;17.114;2022-07-06T07:52:19;10;3;2
42510;PMS7003;28141;51.120;17.114;2022-07-06T07:55:49;12;4;3
42510;PMS7003;28141;51.120;17.114;2022-07-06T07:58:53;11;4;3
42510;PMS7003;28141;51.120;17.114;2022-07-06T08:01:56;12;5;3
42510;PMS7003;28141;51.120;17.114;2022-07-06T08:05:00;11;4;3
42510;PMS7003;28141;51.120;17.114;2022-07-06T08:08:04;10;3;3
42510;PMS7003;28141;51.120;17.114;2022-07-06T08:11:07;11;3;3
42510;PMS7003;28141;51.120;17.114;2022-07-06T08:14:12;12;3;2
42510;PMS7003;28141;51.120;17.114;2022-07-06T08:17:17;11;4;3
42510;PMS7003;28141;51.120;17.114;2022-07-06T08:20:20;10;3;2
42510;PMS7003;28141;51.120;17.114;2022-07-06T08:23:24;11;4;4
42510;PMS7003;28141;51.120;17.114;2022-07-06T08:26:27;11;4;3
42510;PMS7003;28141;51.120;17.114;2022-07-06T08:30:00;11;4;3
42510;PMS7003;28141;51.120;17.114;2022-07-06T08:33:04;11;4;3
42510;PMS7003;28141;51.120;17.114;2022-07-06T08:36:07;12;6;4
42510;PMS7003;28141;51.120;17.114;2022-07-06T08:39:11;11;4;3
42510;PMS7003;28141;51.120;17.114;2022-07-06T08:42:15;12;5;4
42510;PMS7003;28141;51.120;17.114;2022-07-06T08:45:19;10;4;3
42510;PMS7003;28141;51.120;17.114;2022-07-06T08:48:23;13;6;3
42510;PMS7003;28141;51.120;17.114;2022-07-06T08:51:28;11;5;3
42510;PMS7003;28141;51.120;17.114;2022-07-06T08:54:31;11;5;4
42510;PMS7003;28141;51.120;17.114;2022-07-06T08:57:35;13;5;4
42510;PMS7003;28141;51.120;17.114;2022-07-06T09:01:10;11;4;3
42510;PMS7003;28141;51.120;17.114;2022-07-06T09:04:15;12;5;3
42510;PMS7003;28141;51.120;17.114;2022-07-06T09:07:21;11;4;4
42510;PMS7003;28141;51.120;17.114;2022-07-06T09:10:25;12;5;4
42510;PMS7003;28141;51.120;17.114;2022-07-06T09:13:29;11;4;3
42510;PMS7003;28141;51.120;17.114;2022-07-06T09:16:33;11;5;4
42510;PMS7003;28141;51.120;17.114;2022-07-06T09:19:36;13;4;3
42510;PMS7003;28141;51.120;17.114;2022-07-06T09:22:40;12;4;3
42510;PMS7003;28141;51.120;17.114;2022-07-06T09:25:47;15;5;4
42510;PMS7003;28141;51.120;17.114;2022-07-06T09:28:55;10;4;2
42510;PMS7003;28141;51.120;17.114;2022-07-06T09:32:25;12;6;4
42510;PMS7003;28141;51.120;17.114;2022-07-06T09:35:30;12;5;4
42510;PMS7003;28141;51.120;17.114;2022-07-06T09:38:38;13;4;4
42510;PMS7003;28141;51.120;17.114;2022-07-06T09:41:42;12;5;4
42510;PMS7003;28141;51.120;17.114;2022-07-06T09:44:45;15;7;5
42510;PMS7003;28141;51.120;17.114;2022-07-06T09:47:51;13;6;5
42510;PMS7003;28141;51.120;17.114;2022-07-06T09:50:56;14;8;5
42510;PMS7003;28141;51.120;17.114;2022-07-06T09:54:09;13;6;5
42510;PMS7003;28141;51.120;17.114;2022-07-06T09:57:38;15;6;5
42510;PMS7003;28141;51.120;17.114;2022-07-06T10:00:42;14;7;5
42510;PMS7003;28141;51.120;17.114;2022-07-06T10:03:47;15;8;7
42510;PMS7003;28141;51.120;17.114;2022-07-06T10:06:51;18;11;8
42510;PMS7003;28141;51.120;17.114;2022-07-06T10:09:55;20;10;8
42510;PMS7003;28141;51.120;17.114;2022-07-06T10:12:59;17;9;7
42510;PMS7003;28141;51.120;17.114;2022-07-06T10:16:05;15;8;5
42510;PMS7003;28141;51.120;17.114;2022-07-06T10:19:09;17;10;8
42510;PMS7003;28141;51.120;17.114;2022-07-06T10:22:13;18;10;7
42510;PMS7003;28141;51.120;17.114;2022-07-06T10:25:49;14;8;6
42510;PMS7003;28141;51.120;17.114;2022-07-06T10:28:54;11;4;3
42510;PMS7003;28141;51.120;17.114;2022-07-06T10:31:58;11;4;3
42510;PMS7003;28141;51.120;17.114;2022-07-06T10:35:05;13;6;5
42510;PMS7003;28141;51.120;17.114;2022-07-06T10:38:10;14;7;5
42510;PMS7003;28141;51.120;17.114;2022-07-06T10:41:13;14;7;5
42510;PMS7003;28141;51.120;17.114;2022-07-06T10:44:17;14;6;5
42510;PMS7003;28141;51.120;17.114;2022-07-06T10:47:28;13;7;5
42510;PMS7003;28141;51.120;17.114;2022-07-06T10:51:01;15;8;6
42510;PMS7003;28141;51.120;17.114;2022-07-06T10:54:09;14;7;5
42510;PMS7003;28141;51.120;17.114;2022-07-06T10:57:13;15;8;5
42510;PMS7003;28141;51.120;17.114;2022-07-06T11:00:21;14;7;5
42510;PMS7003;28141;51.120;17.114;2022-07-06T11:06:39;16;7;5
42510;PMS7003;28141;51.120;17.114;2022-07-06T11:13:25;13;6;5
42510;PMS7003;28141;51.120;17.114;2022-07-06T11:16:33;15;7;6
42510;PMS7003;28141;51.120;17.114;2022-07-06T11:22:58;16;8;7
42510;PMS7003;28141;51.120;17.114;2022-07-06T11:26:02;18;10;8
42510;PMS7003;28141;51.120;17.114;2022-07-06T11:29:07;16;9;7
42510;PMS7003;28141;51.120;17.114;2022-07-06T11:32:12;19;10;7
42510;PMS7003;28141;51.120;17.114;2022-07-06T11:35:42;17;9;8
42510;PMS7003;28141;51.120;17.114;2022-07-06T11:38:46;17;8;6
42510;PMS7003;28141;51.120;17.114;2022-07-06T11:41:51;17;9;6
42510;PMS7003;28141;51.120;17.114;2022-07-06T11:44:57;16;7;6
42510;PMS7003;28141;51.120;17.114;2022-07-06T11:51:14;15;8;6
42510;PMS7003;28141;51.120;17.114;2022-07-06T11:54:19;16;8;6
42510;PMS7003;28141;51.120;17.114;2022-07-06T11:57:24;14;6;5
42510;PMS7003;28141;51.120;17.114;2022-07-06T12:04:10;13;5;4
42510;PMS7003;28141;51.120;17.114;2022-07-06T12:07:15;13;5;5
42510;PMS7003;28141;51.120;17.114;2022-07-06T12:13:40;13;6;5
42510;PMS7003;28141;51.120;17.114;2022-07-06T12:17:13;11;4;3
42510;PMS7003;28141;51.120;17.114;2022-07-06T12:20:18;12;6;4
42510;PMS7003;28141;51.120;17.114;2022-07-06T12:23:22;12;3;3
42510;PMS7003;28141;51.120;17.114;2022-07-06T12:27:39;10;4;3
42510;PMS7003;28141;51.120;17.114;2022-07-06T12:30:45;11;4;3
42510;PMS7003;28141;51.120;17.114;2022-07-06T12:37:06;10;3;2
42510;PMS7003;28141;51.120;17.114;2022-07-06T12:40:11;10;3;3
42510;PMS7003;28141;51.120;17.114;2022-07-06T12:50:09;9;3;2
42510;PMS7003;28141;51.120;17.114;2022-07-06T12:56:29;12;2;1
42510;PMS7003;28141;51.120;17.114;2022-07-06T12:59:37;10;3;2
42510;PMS7003;28141;51.120;17.114;2022-07-06T13:02:43;12;3;2
42510;PMS7003;28141;51.120;17.114;2022-07-06T13:06:26;8;2;2
42510;PMS7003;28141;51.120;17.114;2022-07-06T13:09:32;10;3;2
42510;PMS7003;28141;51.120;17.114;2022-07-06T13:12:42;9;2;2
42510;PMS7003;28141;51.120;17.114;2022-07-06T13:15:46;9;2;2
42510;PMS7003;28141;51.120;17.114;2022-07-06T13:18:49;20;8;3
42510;PMS7003;28141;51.120;17.114;2022-07-06T13:21:53;15;6;4
42510;PMS7003;28141;51.120;17.114;2022-07-06T13:24:56;20;6;3
42510;PMS7003;28141;51.120;17.114;2022-07-06T13:27:59;17;7;4
42510;PMS7003;28141;51.120;17.114;2022-07-06T13:31:30;12;5;3
42510;PMS7003;28141;51.120;17.114;2022-07-06T13:34:34;12;4;2
42510;PMS7003;28141;51.120;17.114;2022-07-06T13:37:40;10;3;2
42510;PMS7003;28141;51.120;17.114;2022-07-06T13:40:45;10;3;2
42510;PMS7003;28141;51.120;17.114;2022-07-06T13:43:48;11;4;2
42510;PMS7003;28141;51.120;17.114;2022-07-06T13:46:52;13;4;2
42510;PMS7003;28141;51.120;17.114;2022-07-06T13:49:55;11;3;2
42510;PMS7003;28141;51.120;17.114;2022-07-06T13:52:59;10;3;2
42510;PMS7003;28141;51.120;17.114;2022-07-06T13:56:03;9;2;1
42510;PMS7003;28141;51.120;17.114;2022-07-06T13:59:31;9;3;1
42510;PMS7003;28141;51.120;17.114;2022-07-06T14:02:35;8;2;1
42510;PMS7003;28141;51.120;17.114;2022-07-06T14:05:38;8;2;1
42510;PMS7003;28141;51.120;17.114;2022-07-06T14:08:42;8;2;1
42510;PMS7003;28141;51.120;17.114;2022-07-06T14:11:46;9;3;1
42510;PMS7003;28141;51.120;17.114;2022-07-06T14:18:55;8;2;1
42510;PMS7003;28141;51.120;17.114;2022-07-06T14:21:59;9;3;2
42510;PMS7003;28141;51.120;17.114;2022-07-06T14:25:03;8;2;1
42510;PMS7003;28141;51.120;17.114;2022-07-06T14:28:09;8;2;1
42510;PMS7003;28141;51.120;17.114;2022-07-06T14:31:16;9;2;1
42510;PMS7003;28141;51.120;17.114;2022-07-06T14:34:19;8;2;1
42510;PMS7003;28141;51.120;17.114;2022-07-06T14:37:23;8;2;1
42510;PMS7003;28141;51.120;17.114;2022-07-06T14:40:26;8;2;2
42510;PMS7003;28141;51.120;17.114;2022-07-06T14:43:55;8;2;2
42510;PMS7003;28141;51.120;17.114;2022-07-06T14:46:59;9;2;2
42510;PMS7003;28141;51.120;17.114;2022-07-06T14:50:02;8;2;1
42510;PMS7003;28141;51.120;17.114;2022-07-06T14:53:07;8;2;2
42510;PMS7003;28141;51.120;17.114;2022-07-06T14:56:10;8;2;2
42510;PMS7003;28141;51.120;17.114;2022-07-06T14:59:14;8;2;2
42510;PMS7003;28141;51.120;17.114;2022-07-06T15:02:18;8;2;1
42510;PMS7003;28141;51.120;17.114;2022-07-06T15:05:21;8;2;2
42510;PMS7003;28141;51.120;17.114;2022-07-06T15:08:25;8;2;2
42510;PMS7003;28141;51.120;17.114;2022-07-06T15:11:53;8;2;2
42510;PMS7003;28141;51.120;17.114;2022-07-06T15:14:57;9;3;2
42510;PMS7003;28141;51.120;17.114;2022-07-06T15:18:01;9;2;2
42510;PMS7003;28141;51.120;17.114;2022-07-06T15:21:04;10;4;3
42510;PMS7003;28141;51.120;17.114;2022-07-06T15:24:08;9;2;2
42510;PMS7003;28141;51.120;17.114;2022-07-06T15:27:11;9;2;2
42510;PMS7003;28141;51.120;17.114;2022-07-06T15:30:15;9;2;2
42510;PMS7003;28141;51.120;17.114;2022-07-06T15:33:19;9;3;2
42510;PMS7003;28141;51.120;17.114;2022-07-06T15:36:22;9;2;2
42510;PMS7003;28141;51.120;17.114;2022-07-06T15:39:26;9;2;1
42510;PMS7003;28141;51.120;17.114;2022-07-06T15:42:30;10;3;2
42510;PMS7003;28141;51.120;17.114;2022-07-06T15:45:33;11;4;2
42510;PMS7003;28141;51.120;17.114;2022-07-06T15:48:37;11;4;2
42510;PMS7003;28141;51.120;17.114;2022-07-06T15:51:41;9;3;2
42510;PMS7003;28141;51.120;17.114;2022-07-06T15:55:12;10;3;3
42510;PMS7003;28141;51.120;17.114;2022-07-06T15:58:16;9;3;2
42510;PMS7003;28141;51.120;17.114;2022-07-06T16:01:20;9;3;2
42510;PMS7003;28141;51.120;17.114;2022-07-06T16:04:23;9;2;1
42510;PMS7003;28141;51.120;17.114;2022-07-06T16:07:29;9;2;2
42510;PMS7003;28141;51.120;17.114;2022-07-06T16:10:32;8;1;1
42510;PMS7003;28141;51.120;17.114;2022-07-06T16:13:36;9;2;1
42510;PMS7003;28141;51.120;17.114;2022-07-06T16:16:39;8;1;1
42510;PMS7003;28141;51.120;17.114;2022-07-06T16:19:44;9;2;1
42510;PMS7003;28141;51.120;17.114;2022-07-06T16:22:48;8;1;1
42510;PMS7003;28141;51.120;17.114;2022-07-06T16:26:20;9;3;2
42510;PMS7003;28141;51.120;17.114;2022-07-06T16:29:25;8;1;1
42510;PMS7003;28141;51.120;17.114;2022-07-06T16:32:28;8;2;1
42510;PMS7003;28141;51.120;17.114;2022-07-06T16:35:32;9;2;1
42510;PMS7003;28141;51.120;17.114;2022-07-06T16:38:36;8;1;1
42510;PMS7003;28141;51.120;17.114;2022-07-06T16:41:41;8;1;1
42510;PMS7003;28141;51.120;17.114;2022-07-06T16:44:45;8;1;1
42510;PMS7003;28141;51.120;17.114;2022-07-06T16:47:49;9;2;1
42510;PMS7003;28141;51.120;17.114;2022-07-06T16:50:53;9;2;1
42510;PMS7003;28141;51.120;17.114;2022-07-06T16:53:56;9;3;1
42510;PMS7003;28141;51.120;17.114;2022-07-06T16:57:28;7;1;0
42510;PMS7003;28141;51.120;17.114;2022-07-06T17:00:32;9;2;2
42510;PMS7003;28141;51.120;17.114;2022-07-06T17:03:36;8;1;1
42510;PMS7003;28141;51.120;17.114;2022-07-06T17:06:40;8;1;1
42510;PMS7003;28141;51.120;17.114;2022-07-06T17:09:43;8;2;1
42510;PMS7003;28141;51.120;17.114;2022-07-06T17:12:49;8;1;1
42510;PMS7003;28141;51.120;17.114;2022-07-06T17:15:52;9;2;2
42510;PMS7003;28141;51.120;17.114;2022-07-06T17:18:56;8;1;1
42510;PMS7003;28141;51.120;17.114;2022-07-06T17:22:00;8;2;2
42510;PMS7003;28141;51.120;17.114;2022-07-06T17:25:03;8;2;2
42510;PMS7003;28141;51.120;17.114;2022-07-06T17:28:36;8;2;1
42510;PMS7003;28141;51.120;17.114;2022-07-06T17:31:39;9;2;2
42510;PMS7003;28141;51.120;17.114;2022-07-06T17:34:43;7;1;1
42510;PMS7003;28141;51.120;17.114;2022-07-06T17:37:48;8;1;1
42510;PMS7003;28141;51.120;17.114;2022-07-06T17:40:52;8;1;1
42510;PMS7003;28141;51.120;17.114;2022-07-06T17:43:55;8;2;1
42510;PMS7003;28141;51.120;17.114;2022-07-06T17:46:59;8;1;1
42510;PMS7003;28141;51.120;17.114;2022-07-06T17:50:02;8;1;1
42510;PMS7003;28141;51.120;17.114;2022-07-06T17:53:07;8;1;1
42510;PMS7003;28141;51.120;17.114;2022-07-06T17:56:11;8;1;1
42510;PMS7003;28141;51.120;17.114;2022-07-06T17:59:19;8;2;1
42510;PMS7003;28141;51.120;17.114;2022-07-06T18:02:48;8;2;1
42510;PMS7003;28141;51.120;17.114;2022-07-06T18:05:53;8;1;1
42510;PMS7003;28141;51.120;17.114;2022-07-06T18:08:57;8;1;1
42510;PMS7003;28141;51.120;17.114;2022-07-06T18:12:00;8;1;1
42510;PMS7003;28141;51.120;17.114;2022-07-06T18:15:04;8;1;1
42510;PMS7003;28141;51.120;17.114;2022-07-06T18:18:08;8;1;1
42510;PMS7003;28141;51.120;17.114;2022-07-06T18:21:12;9;2;1
42510;PMS7003;28141;51.120;17.114;2022-07-06T18:24:16;8;1;0
42510;PMS7003;28141;51.120;17.114;2022-07-06T18:27:19;8;1;1
42510;PMS7003;28141;51.120;17.114;2022-07-06T18:30:23;8;2;1
42510;PMS7003;28141;51.120;17.114;2022-07-06T18:33:27;7;1;1
42510;PMS7003;28141;51.120;17.114;2022-07-06T18:36:58;8;1;1
42510;PMS7003;28141;51.120;17.114;2022-07-06T18:40:02;8;1;1
42510;PMS7003;28141;51.120;17.114;2022-07-06T18:43:06;9;2;1
42510;PMS7003;28141;51.120;17.114;2022-07-06T18:46:09;7;1;1
42510;PMS7003;28141;51.120;17.114;2022-07-06T18:49:13;8;2;1
42510;PMS7003;28141;51.120;17.114;2022-07-06T18:52:16;8;1;0
42510;PMS7003;28141;51.120;17.114;2022-07-06T18:55:20;8;1;0
42510;PMS7003;28141;51.120;17.114;2022-07-06T18:58:24;8;1;0
42510;PMS7003;28141;51.120;17.114;2022-07-06T19:01:27;7;1;0
42510;PMS7003;28141;51.120;17.114;2022-07-06T19:04:31;8;2;1
42510;PMS7003;28141;51.120;17.114;2022-07-06T19:07:34;7;1;0
42510;PMS7003;28141;51.120;17.114;2022-07-06T19:10:38;8;1;0
42510;PMS7003;28141;51.120;17.114;2022-07-06T19:13:43;8;1;0
42510;PMS7003;28141;51.120;17.114;2022-07-06T19:16:46;7;1;1
42510;PMS7003;28141;51.120;17.114;2022-07-06T19:20:14;8;2;1
42510;PMS7003;28141;51.120;17.114;2022-07-06T19:23:18;7;1;1
42510;PMS7003;28141;51.120;17.114;2022-07-06T19:26:22;8;2;0
42510;PMS7003;28141;51.120;17.114;2022-07-06T19:29:26;7;1;1
42510;PMS7003;28141;51.120;17.114;2022-07-06T19:32:30;6;0;0
42510;PMS7003;28141;51.120;17.114;2022-07-06T19:35:34;7;1;1
42510;PMS7003;28141;51.120;17.114;2022-07-06T19:38:39;8;2;1
42510;PMS7003;28141;51.120;17.114;2022-07-06T19:41:42;11;5;3
42510;PMS7003;28141;51.120;17.114;2022-07-06T19:45:14;9;3;2
42510;PMS7003;28141;51.120;17.114;2022-07-06T19:48:18;9;3;2
42510;PMS7003;28141;51.120;17.114;2022-07-06T19:51:22;9;1;0
42510;PMS7003;28141;51.120;17.114;2022-07-06T19:54:26;8;2;1
42510;PMS7003;28141;51.120;17.114;2022-07-06T19:57:29;8;1;1
42510;PMS7003;28141;51.120;17.114;2022-07-06T20:00:33;8;2;1
42510;PMS7003;28141;51.120;17.114;2022-07-06T20:03:37;8;2;1
42510;PMS7003;28141;51.120;17.114;2022-07-06T20:06:41;9;2;1
42510;PMS7003;28141;51.120;17.114;2022-07-06T20:09:44;9;2;2
42510;PMS7003;28141;51.120;17.114;2022-07-06T20:12:48;9;2;1
42510;PMS7003;28141;51.120;17.114;2022-07-06T20:15:52;8;2;1
42510;PMS7003;28141;51.120;17.114;2022-07-06T20:18:56;9;2;1
42510;PMS7003;28141;51.120;17.114;2022-07-06T20:22:25;8;1;1
42510;PMS7003;28141;51.120;17.114;2022-07-06T20:25:33;9;2;1
42510;PMS7003;28141;51.120;17.114;2022-07-06T20:28:36;9;2;2
42510;PMS7003;28141;51.120;17.114;2022-07-06T20:31:43;9;2;1
42510;PMS7003;28141;51.120;17.114;2022-07-06T20:34:47;8;2;1
42510;PMS7003;28141;51.120;17.114;2022-07-06T20:37:51;9;2;1
42510;PMS7003;28141;51.120;17.114;2022-07-06T20:40:54;8;2;1
42510;PMS7003;28141;51.120;17.114;2022-07-06T20:43:58;8;2;2
42510;PMS7003;28141;51.120;17.114;2022-07-06T20:47:01;10;2;1
42510;PMS7003;28141;51.120;17.114;2022-07-06T20:50:06;9;2;1
42510;PMS7003;28141;51.120;17.114;2022-07-06T20:53:38;8;2;1
42510;PMS7003;28141;51.120;17.114;2022-07-06T20:56:41;10;2;2
42510;PMS7003;28141;51.120;17.114;2022-07-06T20:59:45;9;2;2
42510;PMS7003;28141;51.120;17.114;2022-07-06T21:02:48;8;2;2
42510;PMS7003;28141;51.120;17.114;2022-07-06T21:05:52;8;2;1
42510;PMS7003;28141;51.120;17.114;2022-07-06T21:08:55;9;3;1